Terminal Aerodrome Forecast
Issued by NWS

Home | Current Version | Previous Version | Text Only | Print | Product List | Glossary On
Versions: 1 2 3 4 5 6 7 8 9 10 11 12 13
000
FTUS43 KGRB 252340
TAFMTW
TAF
KMTW 252340Z 2600/2624 17006KT P6SM SCT100 BKN250
     FM260600 19005KT 5SM BR BKN100
     FM261200 17003KT P6SM VCSH SCT040 OVC080
     FM261500 20009KT P6SM VCSH SCT050 OVC100 PROB30 2616/2620 5SM
      -SHRA BR BKN050
     FM262000 24010KT P6SM VCTS SCT025 OVC050CB
      TEMPO 2620/2624 3SM -TSRA BKN025CB=

USA.gov is the U.S. government's official web portal to all federal, state and local government web resources and services.